Time;durP1;ratioP1;P1;durP2;ratioP2;P2;SDS_P1;SDS_P2;PMS_P1;PMS_P2;Temp;Humidity;BMP_temperature;BMP_pressure;BME280_temperature;BME280_humidity;BME280_pressure;Samples;Min_cycle;Max_cycle;Signal;HPM_P1;HPM_P2
2024/04/19 00:01:40;;;;;;;7.70;7.10;;;3.90;99.90;;;4.66;100.00;98157.03;11098520;26;20302;-63
2024/04/19 00:06:46;;;;;;;8.80;7.97;;;3.90;99.90;;;4.64;100.00;98148.44;11107329;26;20375;-63
2024/04/19 00:11:52;;;;;;;8.37;7.67;;;3.90;99.90;;;4.53;100.00;98146.66;11099103;26;20253;-61
2024/04/19 00:17:01;;;;;;;8.27;7.47;;;3.80;99.90;;;4.53;100.00;98146.66;11111813;26;20253;-63
2024/04/19 00:22:07;;;;;;;8.10;7.37;;;3.80;99.90;;;4.43;100.00;98142.44;11098693;26;20268;-63
2024/04/19 00:27:12;;;;;;;7.97;7.17;;;3.70;99.90;;;4.48;100.00;98139.53;11096307;26;20311;-62
2024/04/19 00:32:21;;;;;;;9.83;8.90;;;3.80;99.90;;;4.51;100.00;98136.38;11095205;26;20298;-64
2024/04/19 00:37:26;;;;;;;9.73;8.73;;;3.80;99.90;;;4.60;100.00;98126.16;11093257;26;20257;-63
2024/04/19 00:42:32;;;;;;;9.53;8.63;;;4.00;99.90;;;4.67;100.00;98126.81;11106923;26;20776;-61
2024/04/19 00:47:40;;;;;;;8.00;7.20;;;4.00;99.90;;;4.72;100.00;98120.47;11109341;26;20595;-61
2024/04/19 00:52:47;;;;;;;9.67;8.77;;;4.00;99.90;;;4.68;100.00;98125.16;11100513;26;20282;-61
2024/04/19 00:57:53;;;;;;;9.37;8.57;;;4.00;99.90;;;4.59;100.00;98124.38;11108407;26;20249;-61
2024/04/19 01:03:01;;;;;;;8.53;7.53;;;3.90;99.90;;;4.63;100.00;98122.22;11095749;26;20604;-61
2024/04/19 01:08:08;;;;;;;8.83;8.03;;;3.90;99.90;;;4.54;100.00;98110.44;11099164;26;20253;-62
2024/04/19 01:13:15;;;;;;;10.03;9.13;;;3.80;99.90;;;4.44;100.00;98119.81;11104633;26;20261;-62
2024/04/19 01:18:24;;;;;;;8.97;8.37;;;3.80;99.90;;;4.58;100.00;98120.06;11098938;26;20294;-62
2024/04/19 01:23:31;;;;;;;8.00;7.40;;;3.70;99.90;;;4.41;100.00;98113.59;11094376;26;20382;-62
2024/04/19 01:28:39;;;;;;;7.60;7.00;;;3.60;99.90;;;4.24;100.00;98114.69;11099761;26;20260;-61
2024/04/19 01:33:44;;;;;;;8.87;8.07;;;3.50;99.90;;;4.29;100.00;98103.31;11094223;26;20258;-64
2024/04/19 01:38:50;;;;;;;10.03;9.23;;;3.60;99.90;;;4.24;100.00;98095.34;11105139;26;20297;-63
2024/04/19 01:43:59;;;;;;;8.97;8.27;;;3.60;99.90;;;4.37;100.00;98087.13;11103060;26;20323;-62
2024/04/19 01:49:05;;;;;;;9.27;8.47;;;3.70;99.90;;;4.34;100.00;98079.28;11102145;26;20302;-62
2024/04/19 01:54:10;;;;;;;8.50;7.70;;;3.70;99.90;;;4.43;100.00;98081.69;11098746;26;20256;-62
2024/04/19 01:59:18;;;;;;;8.03;7.43;;;3.70;99.90;;;4.43;100.00;98071.56;11093451;26;20371;-63
2024/04/19 02:04:24;;;;;;;11.13;10.03;;;3.80;99.90;;;4.42;100.00;98065.63;11096061;26;20258;-61
2024/04/19 02:09:31;;;;;;;10.77;9.77;;;3.80;99.90;;;4.57;100.00;98060.09;11096168;26;20409;-61
2024/04/19 02:14:39;;;;;;;10.63;9.53;;;3.90;99.90;;;4.62;100.00;98049.56;11090266;26;20909;-64
2024/04/19 02:19:44;;;;;;;10.10;9.10;;;4.10;99.90;;;4.64;100.00;98049.72;11099935;26;20252;-65
2024/04/19 02:24:50;;;;;;;9.53;8.67;;;4.00;99.90;;;4.72;100.00;98041.09;11084626;26;20300;-61
2024/04/19 02:35:20;;;;;;;10.10;9.30;;;4.00;99.90;;;4.77;100.00;98023.75;11101235;26;20740;-62
2024/04/19 02:40:25;;;;;;;12.83;9.90;;;4.20;99.90;;;4.85;100.00;98021.09;11098282;26;20658;-63
2024/04/19 02:45:33;;;;;;;9.03;8.23;;;4.20;99.90;;;4.87;100.00;98011.97;11107389;26;20259;-63
2024/04/19 02:50:53;;;;;;;9.37;8.47;;;4.20;99.90;;;4.97;100.00;98006.00;11094456;26;20306;-62
2024/04/19 02:55:59;;;;;;;9.73;8.93;;;4.30;99.90;;;4.88;100.00;98001.06;11103135;26;20290;-62
2024/04/19 03:01:07;;;;;;;9.10;8.40;;;4.20;99.90;;;4.92;100.00;98000.56;11110157;26;20750;-62
2024/04/19 03:06:13;;;;;;;8.57;7.83;;;4.20;99.90;;;4.86;100.00;97995.00;11103095;26;20623;-61
2024/04/19 03:11:18;;;;;;;8.87;8.07;;;4.10;99.90;;;4.78;100.00;97985.00;11107584;26;20346;-61
2024/04/19 03:16:26;;;;;;;9.23;8.17;;;4.00;99.90;;;4.77;100.00;97984.13;11095086;26;20364;-62
2024/04/19 03:21:32;;;;;;;9.20;8.40;;;4.00;99.90;;;4.67;100.00;97982.50;11111996;26;20255;-64
2024/04/19 03:26:37;;;;;;;9.37;8.50;;;4.00;99.90;;;4.75;100.00;97985.66;11107716;26;20612;-63
2024/04/19 03:31:45;;;;;;;9.33;8.50;;;4.10;99.90;;;4.79;100.00;97972.47;11109853;26;20276;-63
2024/04/19 03:36:51;;;;;;;9.47;8.77;;;4.10;99.90;;;4.86;100.00;97966.25;11109516;26;20298;-61
2024/04/19 03:41:57;;;;;;;9.60;8.80;;;4.20;99.90;;;4.81;100.00;97955.78;11103389;26;20733;-62
2024/04/19 03:47:05;;;;;;;8.90;8.03;;;4.10;99.90;;;4.75;100.00;97947.69;11099270;26;20282;-63
2024/04/19 03:52:11;;;;;;;9.20;8.50;;;4.00;99.90;;;4.70;100.00;97952.38;11094327;26;20368;-62
2024/04/19 03:57:16;;;;;;;9.83;9.03;;;4.00;99.90;;;4.73;100.00;97952.63;11095166;26;20256;-63
2024/04/19 04:02:24;;;;;;;10.20;9.30;;;4.10;99.90;;;4.84;100.00;97953.50;11106729;26;20293;-63
2024/04/19 04:07:33;;;;;;;10.23;9.27;;;4.20;99.90;;;4.96;100.00;97941.81;11103089;26;20323;-63
2024/04/19 04:12:39;;;;;;;10.43;9.47;;;4.30;99.90;;;4.94;100.00;97930.66;11089634;26;20259;-62
2024/04/19 04:17:47;;;;;;;9.83;8.97;;;4.30;99.90;;;5.02;100.00;97928.75;11105431;26;20252;-63
2024/04/19 04:22:52;;;;;;;11.57;10.47;;;4.30;99.90;;;5.29;100.00;97906.31;11103916;26;20302;-61
2024/04/19 04:27:58;;;;;;;11.40;10.00;;;4.40;99.90;;;5.43;99.63;97911.69;11100533;26;20256;-63
2024/04/19 04:33:07;;;;;;;13.33;11.30;;;4.60;99.90;;;5.50;98.47;97913.06;11102025;26;20736;-63
2024/04/19 04:38:12;;;;;;;12.77;10.93;;;4.80;99.90;;;5.68;96.38;97907.66;11099288;26;20255;-65
2024/04/19 04:43:18;;;;;;;11.83;10.30;;;5.00;99.90;;;5.67;96.39;97916.91;11111935;26;20264;-62
2024/04/19 04:48:26;;;;;;;11.33;10.20;;;5.10;99.90;;;5.65;96.63;97910.84;11091005;26;20291;-61
2024/04/19 04:53:32;;;;;;;10.87;9.83;;;5.10;99.90;;;5.64;97.83;97904.00;11077681;26;20256;-62
2024/04/19 04:58:37;;;;;;;12.07;10.27;;;5.10;99.90;;;5.84;95.26;97901.31;11100192;26;20271;-62
2024/04/19 05:03:49;;;;;;;11.27;10.17;;;5.20;99.90;;;5.75;96.47;97909.88;11105429;26;20260;-62
2024/04/19 05:08:54;;;;;;;11.43;10.23;;;5.20;99.90;;;5.71;95.54;97896.09;11089258;26;20252;-61
2024/04/19 05:14:00;;;;;;;12.63;10.00;;;5.20;99.90;;;5.84;94.95;97906.41;11100074;26;20291;-63
2024/04/19 05:19:08;;;;;;;10.93;9.80;;;5.30;99.90;;;6.24;91.97;97884.06;11090100;26;20261;-62
2024/04/19 05:24:13;;;;;;;11.30;10.20;;;5.40;99.90;;;6.02;92.83;97880.69;11094051;26;20633;-63
2024/04/19 05:29:19;;;;;;;10.50;9.40;;;5.40;99.90;;;6.16;92.11;97889.31;11096173;26;20260;-58
2024/04/19 05:34:27;;;;;;;10.13;9.13;;;5.50;99.90;;;6.26;91.08;97882.47;11086444;26;20339;-62
2024/04/19 05:39:32;;;;;;;10.57;9.50;;;5.50;99.90;;;6.15;92.50;97873.19;11100269;26;20299;-62
2024/04/19 05:44:38;;;;;;;10.77;9.67;;;5.50;99.90;;;6.16;92.57;97874.97;11097314;26;20254;-62
2024/04/19 05:49:46;;;;;;;12.27;10.20;;;5.60;99.90;;;6.24;91.99;97862.88;11082205;26;20294;-62
2024/04/19 05:54:51;;;;;;;10.77;9.23;;;5.60;99.90;;;6.39;91.54;97855.47;11100602;26;20291;-63
2024/04/19 05:59:57;;;;;;;10.80;9.70;;;5.70;99.90;;;6.32;92.24;97847.44;11094948;26;20350;-61
2024/04/19 06:05:05;;;;;;;10.03;9.10;;;5.80;99.90;;;6.33;90.00;97850.84;11090574;26;20259;-65
2024/04/19 06:10:11;;;;;;;10.37;9.37;;;5.80;99.90;;;6.55;90.19;97858.34;11090672;26;20394;-64
2024/04/19 06:15:17;;;;;;;10.93;9.83;;;5.90;99.90;;;6.97;86.65;97832.59;11101397;26;20638;-62
2024/04/19 06:20:25;;;;;;;9.73;8.63;;;6.30;99.90;;;7.14;84.93;97827.81;11091875;26;20311;-63
2024/04/19 06:25:30;;;;;;;9.13;8.23;;;6.50;99.90;;;7.26;83.15;97832.84;11100654;26;20294;-61
2024/04/19 06:30:36;;;;;;;11.13;8.77;;;6.60;99.90;;;7.36;83.39;97833.59;11095543;26;20290;-62
2024/04/19 06:35:44;;;;;;;8.60;7.80;;;6.70;99.90;;;7.55;82.67;97828.09;11087112;26;20282;-62
2024/04/19 06:40:49;;;;;;;9.07;8.17;;;6.80;99.90;;;7.69;81.56;97821.41;11094686;26;20293;-62
2024/04/19 06:45:58;;;;;;;9.67;8.67;;;7.00;99.90;;;7.65;82.12;97827.06;11094097;26;20256;-61
2024/04/19 06:51:07;;;;;;;9.30;8.37;;;6.90;99.90;;;7.79;81.83;97820.38;11088875;26;20267;-63
2024/04/19 06:56:12;;;;;;;21.00;16.20;;;7.00;99.90;;;7.94;81.68;97810.34;11094572;26;20255;-62
2024/04/19 07:01:18;;;;;;;8.50;7.70;;;7.20;99.90;;;8.37;79.59;97793.66;11093373;26;20625;-62
2024/04/19 07:06:26;;;;;;;9.87;8.97;;;7.60;99.90;;;8.53;78.15;97795.56;11103155;26;20848;-62
2024/04/19 07:11:48;;;;;;;8.73;7.83;;;7.90;99.90;;;8.40;78.02;97782.81;11098834;26;20259;-63
2024/04/19 07:16:53;;;;;;;9.37;8.50;;;7.70;99.90;;;8.56;77.20;97775.38;11095583;26;20295;-63
2024/04/19 07:22:01;;;;;;;8.53;7.17;;;8.00;99.90;;;8.63;76.71;97771.53;11098234;26;20261;-62
2024/04/19 07:27:07;;;;;;;7.80;7.10;;;7.90;99.90;;;8.62;76.33;97762.13;11095642;26;20248;-65
2024/04/19 07:32:13;;;;;;;9.00;7.37;;;8.10;99.90;;;8.62;75.64;97745.19;11083627;26;20257;-62
2024/04/19 07:37:21;;;;;;;7.03;6.40;;;8.10;99.90;;;8.55;75.71;97751.53;11073540;26;20298;-64
2024/04/19 07:42:29;;;;;;;6.87;6.17;;;7.90;99.90;;;8.70;74.96;97746.53;11087866;26;20614;-62
2024/04/19 07:47:34;;;;;;;6.73;6.03;;;8.10;99.90;;;8.62;75.82;97729.91;11110419;26;20655;-63
2024/04/19 07:52:42;;;;;;;6.70;6.17;;;8.00;99.90;;;8.51;74.74;97725.78;11100875;26;20712;-63
2024/04/19 07:57:50;;;;;;;9.23;6.63;;;8.00;99.90;;;8.18;76.05;97714.31;11107903;26;20284;-63
2024/04/19 08:02:56;;;;;;;8.13;7.17;;;7.70;99.90;;;8.09;78.02;97714.59;11096839;26;20260;-63
2024/04/19 08:08:04;;;;;;;7.63;6.90;;;7.50;99.90;;;8.06;81.11;97702.56;11088979;26;20586;-63
2024/04/19 08:13:10;;;;;;;7.87;7.17;;;7.40;99.90;;;7.89;81.27;97700.59;11099617;26;20252;-64
2024/04/19 08:18:15;;;;;;;6.67;6.07;;;7.40;99.90;;;7.72;83.37;97691.88;11094740;26;21209;-62
2024/04/19 08:23:25;;;;;;;7.70;6.90;;;7.50;99.90;;;7.62;86.16;97682.78;11093739;26;20723;-63
2024/04/19 08:28:30;;;;;;;7.40;6.67;;;7.20;99.90;;;7.62;86.20;97684.44;11089499;26;20263;-65
2024/04/19 08:33:36;;;;;;;7.40;6.70;;;7.20;99.90;;;7.62;87.71;97670.06;11091416;26;20741;-65
2024/04/19 08:38:44;;;;;;;7.60;6.83;;;7.10;99.90;;;7.60;88.98;97675.81;11099070;26;20814;-62
2024/04/19 08:43:52;;;;;;;7.73;6.97;;;7.20;99.90;;;7.43;89.90;97672.16;11106561;26;20625;-62
2024/04/19 08:48:58;;;;;;;7.53;6.77;;;7.20;99.90;;;7.43;92.49;97672.16;11103523;26;20584;-63
2024/04/19 08:54:08;;;;;;;8.33;7.57;;;7.10;99.90;;;7.32;92.06;97658.72;11098684;26;20247;-62
2024/04/19 08:59:13;;;;;;;8.20;7.40;;;6.90;99.90;;;7.14;93.14;97663.50;11090593;26;20261;-64
2024/04/19 09:04:19;;;;;;;8.00;7.23;;;6.90;99.90;;;7.04;95.32;97648.41;11098113;26;20849;-61
2024/04/19 09:09:29;;;;;;;8.80;7.70;;;6.70;99.90;;;7.18;95.03;97639.16;11098667;26;20724;-60
2024/04/19 09:14:34;;;;;;;12.40;9.93;;;6.90;99.90;;;7.04;95.16;97628.09;11096695;26;20263;-62
2024/04/19 09:19:40;;;;;;;8.20;7.40;;;6.70;99.90;;;7.00;97.22;97624.44;11093596;26;20256;-64
2024/04/19 09:24:52;;;;;;;8.17;7.37;;;6.70;99.90;;;7.00;96.17;97618.47;11092005;26;20256;-64
2024/04/19 09:29:59;;;;;;;7.33;6.63;;;6.70;99.90;;;6.70;97.07;97607.16;11079463;26;20251;-62
2024/04/19 09:35:09;;;;;;;7.27;6.67;;;6.50;99.90;;;6.73;99.03;97600.63;11084473;26;20290;-59
2024/04/19 09:40:17;;;;;;;8.50;7.70;;;6.40;99.90;;;6.72;99.61;97596.34;11089450;26;21000;-61
2024/04/19 09:45:25;;;;;;;7.30;6.60;;;6.30;99.90;;;6.39;98.32;97588.97;11101190;26;20322;-62
2024/04/19 09:50:33;;;;;;;7.17;6.57;;;6.20;99.90;;;6.28;100.00;97586.56;11103781;26;20259;-61
2024/04/19 09:55:55;;;;;;;8.33;7.53;;;6.00;99.90;;;6.26;100.00;97582.13;11086368;26;20309;-62
2024/04/19 10:01:04;;;;;;;8.87;8.07;;;6.10;99.90;;;6.01;100.00;97556.72;11086992;26;20247;-62
2024/04/19 10:06:12;;;;;;;9.20;7.80;;;5.90;99.90;;;6.04;100.00;97541.75;11103411;26;20751;-62
2024/04/19 10:11:21;;;;;;;9.53;8.53;;;6.00;99.90;;;6.12;100.00;97540.59;11094458;26;20294;-62
2024/04/19 10:16:26;;;;;;;8.57;7.77;;;6.10;99.90;;;6.19;100.00;97535.16;11100451;26;20255;-62
2024/04/19 10:21:32;;;;;;;9.33;8.53;;;6.00;99.90;;;6.29;100.00;97526.50;11087269;26;20796;-62
2024/04/19 10:26:42;;;;;;;10.00;9.03;;;6.10;99.90;;;6.27;100.00;97507.78;11081235;26;20260;-63
2024/04/19 10:31:48;;;;;;;9.87;8.97;;;6.10;99.90;;;6.20;100.00;97495.44;11091135;26;20661;-63
2024/04/19 10:36:55;;;;;;;9.17;8.37;;;6.10;99.90;;;6.17;100.00;97485.97;11086080;26;20325;-63
2024/04/19 10:42:03;;;;;;;9.27;8.47;;;5.90;99.90;;;6.20;100.00;97473.47;11092870;26;20307;-61
2024/04/19 10:47:09;;;;;;;9.50;8.53;;;5.90;99.90;;;6.38;100.00;97473.88;11097460;26;20264;-60
2024/04/19 10:52:15;;;;;;;8.97;8.17;;;5.90;99.90;;;6.27;100.00;97464.66;11099094;26;20721;-60
2024/04/19 10:57:23;;;;;;;8.67;7.87;;;6.00;99.90;;;6.29;100.00;97446.19;11097973;26;20762;-62
2024/04/19 11:02:30;;;;;;;9.57;8.67;;;6.00;99.90;;;6.28;100.00;97436.81;11095067;26;20260;-62
2024/04/19 11:07:37;;;;;;;9.00;8.10;;;6.20;99.90;;;6.30;100.00;97432.75;11085984;26;20391;-60
2024/04/19 11:12:46;;;;;;;10.47;9.33;;;6.00;99.90;;;6.26;100.00;97420.59;11085096;26;20740;-62
2024/04/19 11:17:51;;;;;;;9.20;8.33;;;6.00;99.90;;;6.33;100.00;97419.38;11102352;26;20259;-66
2024/04/19 11:23:01;;;;;;;9.27;8.47;;;6.00;99.90;;;6.44;100.00;97404.81;11086889;26;20800;-63
2024/04/19 11:28:09;;;;;;;8.77;7.97;;;6.10;99.90;;;6.48;100.00;97410.22;11103197;26;20251;-62
2024/04/19 11:33:16;;;;;;;7.90;7.10;;;6.10;99.90;;;6.50;100.00;97411.19;11097825;26;20255;-62
2024/04/19 11:38:23;;;;;;;8.93;7.93;;;6.20;99.90;;;6.52;100.00;97403.66;11100304;26;20334;-64
2024/04/19 11:43:33;;;;;;;9.40;8.57;;;6.10;99.90;;;6.64;100.00;97399.41;11096224;26;20251;-62
2024/04/19 11:48:38;;;;;;;8.63;7.93;;;6.20;99.90;;;6.70;100.00;97388.78;11080873;26;20256;-62
2024/04/19 11:53:44;;;;;;;9.50;8.70;;;6.30;99.90;;;6.55;100.00;97383.56;11090724;26;20256;-62
2024/04/19 11:58:54;;;;;;;7.57;6.87;;;6.20;99.90;;;6.57;100.00;97382.00;11084935;26;20251;-61
2024/04/19 12:04:00;;;;;;;7.13;6.53;;;6.20;99.90;;;6.68;100.00;97383.56;11088711;26;20259;-61
2024/04/19 12:09:06;;;;;;;12.20;10.23;;;6.20;99.90;;;6.53;100.00;97385.13;11098992;26;20287;-64
2024/04/19 12:14:14;;;;;;;6.93;6.43;;;6.10;99.90;;;6.44;100.00;97371.81;11094069;26;20286;-63
2024/04/19 12:19:40;;;;;;;6.47;5.90;;;6.10;99.90;;;6.46;100.00;97377.88;11104580;26;20712;-63
2024/04/19 12:24:45;;;;;;;5.67;5.27;;;6.10;99.90;;;6.43;100.00;97372.63;11083005;26;20334;-63
2024/04/19 12:29:55;;;;;;;6.20;5.70;;;6.10;99.90;;;6.34;100.00;97369.50;11084029;26;20252;-62
2024/04/19 12:35:00;;;;;;;5.07;4.67;;;6.00;99.90;;;6.11;100.00;97373.94;11095224;26;20581;-62
2024/04/19 12:40:07;;;;;;;6.37;5.87;;;5.80;99.90;;;6.16;100.00;97364.97;11086945;26;20252;-64
2024/04/19 12:45:16;;;;;;;7.00;6.50;;;5.80;99.90;;;6.08;100.00;97371.19;11097712;26;20251;-64
2024/04/19 12:50:22;;;;;;;6.67;6.20;;;5.80;99.90;;;5.99;100.00;97355.38;11091514;26;20295;-63
2024/04/19 12:55:28;;;;;;;6.10;5.70;;;5.60;99.90;;;6.13;100.00;97341.94;11075954;26;20292;-64
2024/04/19 13:00:36;;;;;;;5.63;5.13;;;5.80;99.90;;;5.94;100.00;97329.69;11084154;26;20247;-63
2024/04/19 13:05:42;;;;;;;6.17;5.57;;;5.60;99.90;;;5.93;100.00;97324.50;11093431;26;20331;-63
2024/04/19 13:10:47;;;;;;;6.03;5.43;;;5.60;99.90;;;5.99;100.00;97308.06;11086956;26;20314;-65
2024/04/19 13:15:55;;;;;;;6.13;5.57;;;5.60;99.90;;;5.95;100.00;97310.28;11081636;26;20335;-63
2024/04/19 13:21:01;;;;;;;6.03;5.53;;;5.60;99.90;;;6.09;100.00;97284.16;11085325;26;20375;-63
2024/04/19 13:26:08;;;;;;;6.03;5.53;;;5.70;99.90;;;6.20;100.00;97267.97;11087860;26;20695;-63
2024/04/19 13:31:16;;;;;;;8.17;7.37;;;5.80;99.90;;;6.35;100.00;97257.03;11081317;26;20365;-64
2024/04/19 13:36:22;;;;;;;7.30;6.70;;;6.00;99.90;;;6.14;100.00;97277.72;11092683;26;20541;-64
2024/04/19 13:41:28;;;;;;;6.03;5.53;;;5.90;99.90;;;6.29;100.00;97268.53;11091839;26;20417;-63
2024/04/19 13:46:36;;;;;;;5.90;5.40;;;6.00;99.90;;;6.37;100.00;97247.84;11098318;26;20272;-63
2024/04/19 13:51:42;;;;;;;6.23;5.73;;;6.00;99.90;;;6.32;100.00;97243.38;11090952;26;20296;-64
2024/04/19 13:56:48;;;;;;;5.50;5.00;;;6.00;99.90;;;6.25;100.00;97260.66;11092738;26;21177;-64
2024/04/19 14:01:56;;;;;;;5.70;5.30;;;6.10;99.90;;;6.37;100.00;97245.31;11080526;26;20289;-63
2024/04/19 14:07:02;;;;;;;5.80;5.33;;;6.10;99.90;;;6.34;100.00;97240.06;11074646;26;20365;-63
2024/04/19 14:12:08;;;;;;;5.87;5.47;;;6.10;99.90;;;6.29;100.00;97233.00;11088600;26;20244;-63
2024/04/19 14:17:17;;;;;;;5.77;5.27;;;6.10;99.90;;;6.31;100.00;97249.22;11080601;26;20255;-62
2024/04/19 14:22:23;;;;;;;5.50;5.10;;;6.20;99.90;;;6.30;100.00;97239.00;11080168;26;20260;-64
2024/04/19 14:27:29;;;;;;;7.67;6.97;;;6.10;99.90;;;6.19;100.00;97245.91;11093032;26;20260;-64
2024/04/19 14:32:37;;;;;;;4.90;4.50;;;6.00;99.90;;;6.34;100.00;97240.94;11100446;26;20306;-64
2024/04/19 14:37:43;;;;;;;4.73;4.37;;;6.00;99.90;;;6.24;100.00;97231.88;11101922;26;20259;-64
2024/04/19 14:42:48;;;;;;;4.67;4.27;;;5.80;99.90;;;6.11;100.00;97229.31;11107963;26;20360;-63
2024/04/19 14:47:58;;;;;;;4.60;4.20;;;5.80;99.90;;;6.15;100.00;97221.13;11111500;26;20259;-64
2024/04/19 14:53:04;;;;;;;4.97;4.53;;;5.70;99.90;;;6.14;100.00;97206.69;11104275;26;20719;-63
2024/04/19 14:58:15;;;;;;;4.67;4.27;;;5.80;99.90;;;6.02;100.00;97198.31;11115112;26;20591;-63
2024/04/19 15:03:23;;;;;;;5.73;4.57;;;5.70;99.90;;;6.22;100.00;97199.56;11095313;26;20644;-63
2024/04/19 15:08:29;;;;;;;5.53;5.10;;;5.80;99.90;;;6.20;100.00;97194.38;11116613;26;20329;-64
2024/04/19 15:13:34;;;;;;;5.97;5.47;;;5.90;99.90;;;6.32;100.00;97179.94;11111726;26;20255;-63
2024/04/19 15:18:43;;;;;;;7.87;7.17;;;6.00;99.90;;;6.36;100.00;97172.50;11118038;26;20299;-64
2024/04/19 15:23:49;;;;;;;4.73;4.43;;;6.00;99.90;;;6.35;100.00;97150.44;11108906;26;20251;-64
2024/04/19 15:28:54;;;;;;;5.70;5.30;;;6.00;99.90;;;6.20;100.00;97158.84;11108092;26;20296;-66
2024/04/19 15:34:02;;;;;;;4.30;4.00;;;5.90;99.90;;;6.34;100.00;97148.69;11109076;26;20260;-64
2024/04/19 15:39:28;;;;;;;4.90;4.53;;;6.10;99.90;;;6.14;100.00;97150.88;11105245;26;20808;-64
2024/04/19 15:44:33;;;;;;;4.60;4.33;;;5.90;99.90;;;6.31;100.00;97131.63;11105646;26;20367;-63
2024/04/19 15:49:45;;;;;;;4.43;4.17;;;5.90;99.90;;;6.15;100.00;97146.66;11107141;26;20301;-64
2024/04/19 15:54:52;;;;;;;4.27;4.00;;;5.90;99.90;;;6.34;100.00;97138.53;11108464;26;20302;-63
2024/04/19 15:59:58;;;;;;;3.60;3.40;;;6.00;99.90;;;6.32;100.00;97146.94;11113176;26;20277;-64
2024/04/19 16:05:07;;;;;;;3.63;3.43;;;6.00;99.90;;;6.17;100.00;97157.78;11126121;21;20738;-63
2024/04/19 16:10:13;;;;;;;3.63;3.33;;;5.90;99.90;;;6.16;100.00;97159.47;11178173;26;20251;-65
2024/04/19 16:15:19;;;;;;;3.60;3.40;;;5.70;99.90;;;6.06;100.00;97167.25;11173321;26;20662;-65
2024/04/19 16:20:27;;;;;;;3.73;3.43;;;5.70;99.90;;;6.02;100.00;97170.41;11119061;26;20252;-65
2024/04/19 16:25:32;;;;;;;3.73;3.43;;;5.60;99.90;;;5.94;100.00;97174.09;11112634;26;20310;-64
2024/04/19 16:30:38;;;;;;;5.43;4.97;;;5.50;99.90;;;5.95;100.00;97168.25;11121761;26;20255;-64
2024/04/19 16:35:46;;;;;;;3.90;3.70;;;5.60;99.90;;;5.78;100.00;97183.25;11115244;26;20259;-65
2024/04/19 16:41:07;;;;;;;5.77;5.27;;;5.40;99.90;;;5.85;100.00;97181.97;11100268;26;20397;-64
2024/04/19 16:46:13;;;;;;;4.00;3.70;;;5.50;99.90;;;5.94;100.00;97172.44;11104290;26;20255;-64
2024/04/19 16:51:22;;;;;;;3.77;3.57;;;5.60;99.90;;;5.90;100.00;97169.59;11107929;26;20255;-64
2024/04/19 16:56:27;;;;;;;3.90;3.70;;;5.60;99.90;;;5.79;100.00;97164.72;11106888;26;20302;-64
2024/04/19 17:01:33;;;;;;;4.10;3.80;;;5.50;99.90;;;5.93;100.00;97165.63;11108288;26;20256;-65
2024/04/19 17:06:43;;;;;;;3.97;3.73;;;5.50;99.90;;;5.95;100.00;97173.31;11097822;26;20284;-65
2024/04/19 17:11:51;;;;;;;4.80;4.37;;;5.50;99.90;;;5.99;100.00;97160.06;11100856;26;20316;-64
2024/04/19 17:16:57;;;;;;;5.07;4.67;;;5.60;99.90;;;6.01;100.00;97148.34;11107426;26;20625;-65
2024/04/19 17:22:05;;;;;;;3.70;3.50;;;5.60;99.90;;;6.07;100.00;97143.66;11106393;26;20373;-65
2024/04/19 17:27:15;;;;;;;3.70;3.40;;;5.60;99.90;;;6.08;100.00;97130.19;11105530;26;20751;-65
2024/04/19 17:32:20;;;;;;;5.97;5.50;;;5.60;99.90;;;6.04;100.00;97129.13;11108417;26;20374;-65
2024/04/19 17:37:28;;;;;;;5.60;5.20;;;5.60;99.90;;;6.08;100.00;97118.38;11115791;26;20638;-66
2024/04/19 17:42:37;;;;;;;7.73;6.93;;;5.60;99.90;;;6.19;100.00;97108.91;11111454;26;20255;-66
2024/04/19 17:47:43;;;;;;;7.17;6.50;;;5.60;99.90;;;6.09;100.00;97114.19;11120568;26;20264;-66
2024/04/19 17:52:51;;;;;;;5.70;5.20;;;5.60;99.90;;;6.13;100.00;97106.00;11117920;26;20256;-66
2024/04/19 17:57:56;;;;;;;4.50;4.20;;;5.70;99.90;;;6.04;100.00;97111.38;11119424;26;20252;-65
2024/04/19 18:03:02;;;;;;;3.90;3.60;;;5.60;99.90;;;5.96;100.00;97124.38;11103308;26;20356;-66
2024/04/19 18:08:11;;;;;;;3.97;3.67;;;5.60;99.90;;;5.97;100.00;97126.09;11099139;26;20364;-65
2024/04/19 18:13:17;;;;;;;3.50;3.30;;;5.60;99.90;;;5.99;100.00;97110.22;11113535;26;20299;-65
2024/04/19 18:18:23;;;;;;;3.23;3.13;;;5.50;99.90;;;6.17;100.00;97107.91;11107914;26;20298;-66
2024/04/19 18:23:32;;;;;;;3.53;3.33;;;5.70;99.90;;;6.07;100.00;97158.88;11094775;26;20272;-65
2024/04/19 18:28:38;;;;;;;2.93;2.73;;;5.70;99.90;;;5.93;100.00;97160.56;11104479;26;20735;-64
2024/04/19 18:33:44;;;;;;;3.60;3.07;;;5.60;99.90;;;5.96;100.00;97195.38;11110936;26;20291;-63
2024/04/19 18:38:52;;;;;;;3.60;3.40;;;5.70;99.90;;;5.96;100.00;97220.75;11105237;26;20264;-64
2024/04/19 18:43:58;;;;;;;4.43;4.13;;;5.60;99.90;;;5.93;100.00;97195.16;11097727;26;20286;-64
2024/04/19 18:49:08;;;;;;;4.53;4.23;;;5.60;99.90;;;5.96;100.00;97208.94;11094996;26;20292;-65
2024/04/19 18:54:16;;;;;;;5.47;5.07;;;5.70;99.90;;;6.11;100.00;97209.03;11107270;26;20385;-65
2024/04/19 18:59:25;;;;;;;5.20;4.90;;;5.70;99.90;;;6.19;100.00;97215.47;11105363;26;23162;-64
2024/04/19 19:04:30;;;;;;;4.23;3.93;;;5.70;99.90;;;6.26;100.00;97227.75;11098229;26;20632;-65
2024/04/19 19:09:38;;;;;;;4.90;4.50;;;5.80;99.90;;;6.18;100.00;97234.03;11104889;26;20255;-65
2024/04/19 19:14:45;;;;;;;6.50;5.70;;;5.70;99.90;;;6.20;100.00;97237.50;11106697;26;20248;-64
2024/04/19 19:19:53;;;;;;;11.63;9.23;;;5.70;99.90;;;6.29;100.00;97238.09;11104019;26;20304;-67
2024/04/19 19:25:05;;;;;;;8.20;6.70;;;5.70;99.90;;;6.27;100.00;97257.44;11094671;26;20263;-65
2024/04/19 19:30:11;;;;;;;4.53;4.13;;;5.80;99.90;;;6.33;100.00;97254.41;11104251;26;20311;-67
2024/04/19 19:35:17;;;;;;;7.37;6.67;;;5.80;99.90;;;6.30;100.00;97267.78;11105950;26;20247;-66
2024/04/19 19:40:25;;;;;;;3.20;2.90;;;5.70;99.90;;;6.09;100.00;97264.75;11112594;26;20290;-66
2024/04/19 19:45:31;;;;;;;5.10;4.70;;;5.60;99.90;;;6.11;100.00;97282.59;11111645;26;20286;-66
2024/04/19 19:50:36;;;;;;;3.80;3.50;;;5.50;99.90;;;5.93;100.00;97294.97;11100223;26;20603;-66
2024/04/19 19:55:44;;;;;;;2.70;2.50;;;5.40;99.90;;;5.67;100.00;97298.28;11113924;26;20684;-66
2024/04/19 20:06:12;;;;;;;4.27;3.40;;;5.20;99.90;;;5.57;100.00;97306.03;11102534;26;21029;-66
2024/04/19 20:11:22;;;;;;;3.57;3.37;;;5.10;99.90;;;5.55;100.00;97303.44;11100429;26;20256;-66
2024/04/19 20:16:27;;;;;;;3.77;3.50;;;5.10;99.90;;;5.64;100.00;97314.19;11110086;26;20298;-66
2024/04/19 20:21:33;;;;;;;3.53;3.23;;;5.20;99.90;;;5.64;100.00;97318.38;11104744;26;20326;-65
2024/04/19 20:26:41;;;;;;;3.90;3.60;;;5.20;99.90;;;5.71;100.00;97333.19;11107982;26;20688;-65
2024/04/19 20:31:46;;;;;;;3.73;3.33;;;5.20;99.90;;;5.70;100.00;97339.06;11102104;26;20839;-65
2024/04/19 20:36:52;;;;;;;5.07;3.50;;;5.20;99.90;;;5.82;100.00;97329.72;11104635;26;20777;-65
2024/04/19 20:42:00;;;;;;;4.27;3.80;;;5.20;99.90;;;5.70;100.00;97341.59;11108354;26;20260;-65
2024/04/19 20:47:06;;;;;;;3.90;3.53;;;5.20;99.90;;;5.65;100.00;97346.34;11104043;26;20290;-65
2024/04/19 20:52:11;;;;;;;4.27;3.87;;;5.20;99.90;;;5.69;100.00;97351.63;11103935;26;20303;-65
2024/04/19 20:57:19;;;;;;;4.13;3.83;;;5.20;99.90;;;5.73;100.00;97367.16;11099905;26;20261;-66
2024/04/19 21:02:25;;;;;;;3.83;3.43;;;5.20;99.90;;;5.70;100.00;97373.69;11106863;26;20272;-66
2024/04/19 21:07:30;;;;;;;3.63;3.33;;;5.20;99.90;;;5.83;100.00;97364.44;11114971;26;20595;-66
2024/04/19 21:12:38;;;;;;;4.57;3.60;;;5.30;99.90;;;5.78;100.00;97358.19;11108719;26;20259;-65
2024/04/19 21:17:44;;;;;;;3.77;3.23;;;5.30;99.90;;;5.81;100.00;97373.63;11108335;26;20264;-65
2024/04/19 21:22:50;;;;;;;3.77;3.47;;;5.30;99.90;;;5.82;100.00;97375.38;11108171;26;20306;-66
2024/04/19 21:27:59;;;;;;;3.63;3.33;;;5.30;99.90;;;5.79;100.00;97385.31;11105747;26;20634;-66
2024/04/19 21:33:05;;;;;;;5.63;4.10;;;5.30;99.90;;;5.82;100.00;97390.59;11112120;26;20294;-66
2024/04/19 21:38:10;;;;;;;4.70;4.07;;;5.30;99.90;;;5.88;100.00;97402.78;11108802;26;20642;-66
2024/04/19 21:43:19;;;;;;;4.57;4.10;;;5.40;99.90;;;5.84;100.00;97398.31;11115061;26;20260;-65